Hlavní strana
METAR-TAF:

METAR-TAF

Letiště :

Kassel, Německo

zeměpisná šířka: 51-24N, zeměpisná délka: 009-23E, výška: 277 m

Aktuální stav počasí

Zpráva byla vytvořena před 41 minutami, v 15:20 UTC
Západojihozápadní vítr 4 kt, proměnlivý mezi jihozápadním a západním
Teplota 21°C
Vlhkost vzduchu 49%
Tlak 1015 hPa
Viditelnost 10 km a více
Žádná oblačnost pod 1500 m, nevyskytují se cumulonimby.

METAR: EDVK 271520Z 24004KT 220V280 CAVOK 21/10 Q1015

Čas: 18:01 (16:01 UTC)

Předpověď počasí

Zpráva byla vytvořena před 2 hodinami a 1 minutami, v 14:00 UTC
Předpověď platná od 27 v 15 UTC do 27 v 24 UTC
Západní vítr 6 kt
Viditelnost 10 km a více
Skoro jasno ve výšce 4000 ft
Dočasný
od 27 v 15 UTC do 27 v 24 UTC
Oblačno až skoro zataženo ve výšce 3000 ft, Cumulonimbus.
dešťové přeháňky
Pravděpodobnost 30% :
Dočasný
od 27 v 16 UTC do 27 v 21 UTC
Viditelnost: 3000 m
bouřka, déšť,

TAF: EDVK 271400Z 2715/2724 28006KT 9999 FEW040 TEMPO 2715/2724 SHRA BKN030CB PROB30 TEMPO 2716/2721 3000 TSRA

Stav a předpovědi počasí z více než 4 000 letišť (zprávy METAR a TAF).

Červené a žluté tečky na mapě představují dostupné meteorologické stanice.

Když kurzor umístíte na tečku, zobrazí se název stanice.

Pak kliknutím zobrazíte stav a předpověď počasí.

Chcete-li změnit mapu, kliknutím na zelené tlačítko se znaménkem +mapu přiblížíte, kliknutím na zelené tlačítko se znaménkem – mapu oddálíte a kliknutím na zelené šipky přejdete na sousední mapy.


METAR-TAF: